sensor_id;sensor_type;location;lat;lon;timestamp;temperature;humidity
73572;DHT22;61854;48.510;-2.770;2023-03-23T00:02:14;13.00;93.20
73572;DHT22;61854;48.510;-2.770;2023-03-23T00:04:40;13.00;92.90
73572;DHT22;61854;48.510;-2.770;2023-03-23T00:07:08;13.00;92.90
73572;DHT22;61854;48.510;-2.770;2023-03-23T00:09:33;12.90;92.90
73572;DHT22;61854;48.510;-2.770;2023-03-23T00:12:00;13.00;93.00
73572;DHT22;61854;48.510;-2.770;2023-03-23T00:14:31;13.00;93.30
73572;DHT22;61854;48.510;-2.770;2023-03-23T00:17:09;13.00;92.80
73572;DHT22;61854;48.510;-2.770;2023-03-23T00:19:39;13.00;92.80
73572;DHT22;61854;48.510;-2.770;2023-03-23T00:22:14;13.00;92.90
73572;DHT22;61854;48.510;-2.770;2023-03-23T00:24:40;12.90;93.00
73572;DHT22;61854;48.510;-2.770;2023-03-23T00:27:06;13.00;92.90
73572;DHT22;61854;48.510;-2.770;2023-03-23T00:29:31;13.00;93.10
73572;DHT22;61854;48.510;-2.770;2023-03-23T00:31:57;12.90;93.20
73572;DHT22;61854;48.510;-2.770;2023-03-23T00:34:23;12.90;93.10
73572;DHT22;61854;48.510;-2.770;2023-03-23T00:36:53;12.90;93.10
73572;DHT22;61854;48.510;-2.770;2023-03-23T00:39:22;12.90;93.70
73572;DHT22;61854;48.510;-2.770;2023-03-23T00:41:49;12.80;94.20
73572;DHT22;61854;48.510;-2.770;2023-03-23T00:44:15;12.80;95.20
73572;DHT22;61854;48.510;-2.770;2023-03-23T00:46:45;12.60;95.80
73572;DHT22;61854;48.510;-2.770;2023-03-23T00:49:12;12.60;96.40
73572;DHT22;61854;48.510;-2.770;2023-03-23T00:51:38;12.40;97.10
73572;DHT22;61854;48.510;-2.770;2023-03-23T00:54:04;12.40;97.70
73572;DHT22;61854;48.510;-2.770;2023-03-23T00:56:29;12.30;98.20
73572;DHT22;61854;48.510;-2.770;2023-03-23T00:58:56;12.20;98.70
73572;DHT22;61854;48.510;-2.770;2023-03-23T01:01:21;12.20;98.90
73572;DHT22;61854;48.510;-2.770;2023-03-23T01:03:47;12.20;99.00
73572;DHT22;61854;48.510;-2.770;2023-03-23T01:06:12;12.30;99.40
73572;DHT22;61854;48.510;-2.770;2023-03-23T01:08:39;12.30;99.50
73572;DHT22;61854;48.510;-2.770;2023-03-23T01:11:12;12.20;98.90
73572;DHT22;61854;48.510;-2.770;2023-03-23T01:13:37;12.10;97.70
73572;DHT22;61854;48.510;-2.770;2023-03-23T01:16:03;12.00;97.40
73572;DHT22;61854;48.510;-2.770;2023-03-23T01:18:29;11.90;97.50
73572;DHT22;61854;48.510;-2.770;2023-03-23T01:20:54;11.80;97.90
73572;DHT22;61854;48.510;-2.770;2023-03-23T01:23:20;11.70;98.20
73572;DHT22;61854;48.510;-2.770;2023-03-23T01:25:45;11.80;99.90
73572;DHT22;61854;48.510;-2.770;2023-03-23T01:28:11;11.90;99.90
73572;DHT22;61854;48.510;-2.770;2023-03-23T01:30:37;12.00;99.90
73572;DHT22;61854;48.510;-2.770;2023-03-23T01:33:02;12.00;99.90
73572;DHT22;61854;48.510;-2.770;2023-03-23T01:35:28;12.10;99.90
73572;DHT22;61854;48.510;-2.770;2023-03-23T01:37:53;12.00;99.70
73572;DHT22;61854;48.510;-2.770;2023-03-23T01:40:19;12.00;99.90
73572;DHT22;61854;48.510;-2.770;2023-03-23T01:42:44;12.00;99.90
73572;DHT22;61854;48.510;-2.770;2023-03-23T01:50:30;11.90;99.90
73572;DHT22;61854;48.510;-2.770;2023-03-23T01:52:57;11.90;99.90
73572;DHT22;61854;48.510;-2.770;2023-03-23T01:55:24;11.90;99.90
73572;DHT22;61854;48.510;-2.770;2023-03-23T01:57:51;12.00;99.90
73572;DHT22;61854;48.510;-2.770;2023-03-23T02:00:17;12.00;99.90
73572;DHT22;61854;48.510;-2.770;2023-03-23T02:02:44;12.00;99.90
73572;DHT22;61854;48.510;-2.770;2023-03-23T02:05:14;12.00;99.40
73572;DHT22;61854;48.510;-2.770;2023-03-23T02:07:40;12.00;99.00
73572;DHT22;61854;48.510;-2.770;2023-03-23T02:10:06;12.00;98.70
73572;DHT22;61854;48.510;-2.770;2023-03-23T02:12:32;12.00;98.50
73572;DHT22;61854;48.510;-2.770;2023-03-23T02:14:58;12.10;98.50
73572;DHT22;61854;48.510;-2.770;2023-03-23T02:17:30;12.10;98.40
73572;DHT22;61854;48.510;-2.770;2023-03-23T02:25:24;12.10;98.20
73572;DHT22;61854;48.510;-2.770;2023-03-23T02:28:07;12.00;98.10
73572;DHT22;61854;48.510;-2.770;2023-03-23T02:33:28;12.00;97.90
73572;DHT22;61854;48.510;-2.770;2023-03-23T02:35:55;12.10;97.90
73572;DHT22;61854;48.510;-2.770;2023-03-23T02:38:25;12.00;97.80
73572;DHT22;61854;48.510;-2.770;2023-03-23T02:40:52;12.00;97.70
73572;DHT22;61854;48.510;-2.770;2023-03-23T02:43:21;12.10;97.60
73572;DHT22;61854;48.510;-2.770;2023-03-23T02:45:47;12.00;97.40
73572;DHT22;61854;48.510;-2.770;2023-03-23T02:48:14;12.10;97.20
73572;DHT22;61854;48.510;-2.770;2023-03-23T02:50:42;12.10;96.90
73572;DHT22;61854;48.510;-2.770;2023-03-23T02:53:09;12.10;96.60
73572;DHT22;61854;48.510;-2.770;2023-03-23T02:55:36;12.10;96.50
73572;DHT22;61854;48.510;-2.770;2023-03-23T02:58:10;12.00;96.40
73572;DHT22;61854;48.510;-2.770;2023-03-23T03:00:36;12.00;96.20
73572;DHT22;61854;48.510;-2.770;2023-03-23T03:03:02;12.00;96.10
73572;DHT22;61854;48.510;-2.770;2023-03-23T03:08:19;12.10;95.70
73572;DHT22;61854;48.510;-2.770;2023-03-23T03:10:50;12.00;95.30
73572;DHT22;61854;48.510;-2.770;2023-03-23T03:16:04;11.90;95.40
73572;DHT22;61854;48.510;-2.770;2023-03-23T03:21:07;11.90;95.70
73572;DHT22;61854;48.510;-2.770;2023-03-23T03:23:34;11.90;95.70
73572;DHT22;61854;48.510;-2.770;2023-03-23T03:26:02;11.90;95.60
73572;DHT22;61854;48.510;-2.770;2023-03-23T03:28:30;11.90;95.60
73572;DHT22;61854;48.510;-2.770;2023-03-23T03:30:57;11.90;95.60
73572;DHT22;61854;48.510;-2.770;2023-03-23T03:33:26;11.90;95.70
73572;DHT22;61854;48.510;-2.770;2023-03-23T03:35:55;11.90;96.00
73572;DHT22;61854;48.510;-2.770;2023-03-23T03:38:21;11.80;96.10
73572;DHT22;61854;48.510;-2.770;2023-03-23T03:40:47;11.90;96.20
73572;DHT22;61854;48.510;-2.770;2023-03-23T03:43:12;11.80;96.30
73572;DHT22;61854;48.510;-2.770;2023-03-23T03:45:38;11.80;96.40
73572;DHT22;61854;48.510;-2.770;2023-03-23T03:48:03;11.80;96.40
73572;DHT22;61854;48.510;-2.770;2023-03-23T03:50:29;11.80;96.50
73572;DHT22;61854;48.510;-2.770;2023-03-23T03:52:55;11.80;96.50
73572;DHT22;61854;48.510;-2.770;2023-03-23T03:55:23;11.80;96.50
73572;DHT22;61854;48.510;-2.770;2023-03-23T03:57:49;11.80;96.50
73572;DHT22;61854;48.510;-2.770;2023-03-23T04:00:15;11.90;96.60
73572;DHT22;61854;48.510;-2.770;2023-03-23T04:02:41;11.80;96.40
73572;DHT22;61854;48.510;-2.770;2023-03-23T04:05:07;11.80;96.40
73572;DHT22;61854;48.510;-2.770;2023-03-23T04:07:35;11.80;96.30
73572;DHT22;61854;48.510;-2.770;2023-03-23T04:10:04;11.80;96.30
73572;DHT22;61854;48.510;-2.770;2023-03-23T04:12:31;11.80;96.30
73572;DHT22;61854;48.510;-2.770;2023-03-23T04:14:57;11.80;96.40
73572;DHT22;61854;48.510;-2.770;2023-03-23T04:17:23;11.80;96.50
73572;DHT22;61854;48.510;-2.770;2023-03-23T04:19:51;11.80;96.50
73572;DHT22;61854;48.510;-2.770;2023-03-23T04:22:17;11.80;96.50
73572;DHT22;61854;48.510;-2.770;2023-03-23T04:24:42;11.80;96.50
73572;DHT22;61854;48.510;-2.770;2023-03-23T04:27:08;11.90;96.50
73572;DHT22;61854;48.510;-2.770;2023-03-23T04:29:33;11.90;96.50
73572;DHT22;61854;48.510;-2.770;2023-03-23T04:31:59;11.90;96.50
73572;DHT22;61854;48.510;-2.770;2023-03-23T04:34:26;11.90;96.50
73572;DHT22;61854;48.510;-2.770;2023-03-23T04:36:51;11.90;96.50
73572;DHT22;61854;48.510;-2.770;2023-03-23T04:39:18;11.90;96.60
73572;DHT22;61854;48.510;-2.770;2023-03-23T04:41:44;11.90;96.60
73572;DHT22;61854;48.510;-2.770;2023-03-23T04:44:11;11.90;96.80
73572;DHT22;61854;48.510;-2.770;2023-03-23T04:46:42;11.90;96.80
73572;DHT22;61854;48.510;-2.770;2023-03-23T04:49:10;11.90;96.80
73572;DHT22;61854;48.510;-2.770;2023-03-23T04:51:36;11.90;96.80
73572;DHT22;61854;48.510;-2.770;2023-03-23T04:54:01;11.80;96.80
73572;DHT22;61854;48.510;-2.770;2023-03-23T04:56:27;11.90;96.80
73572;DHT22;61854;48.510;-2.770;2023-03-23T04:58:52;11.90;96.80
73572;DHT22;61854;48.510;-2.770;2023-03-23T05:01:18;11.80;96.70
73572;DHT22;61854;48.510;-2.770;2023-03-23T05:03:44;11.80;96.70
73572;DHT22;61854;48.510;-2.770;2023-03-23T05:06:09;11.80;96.60
73572;DHT22;61854;48.510;-2.770;2023-03-23T05:08:36;11.90;96.70
73572;DHT22;61854;48.510;-2.770;2023-03-23T05:11:04;11.90;96.50
73572;DHT22;61854;48.510;-2.770;2023-03-23T05:13:30;11.90;96.40
73572;DHT22;61854;48.510;-2.770;2023-03-23T05:15:56;11.80;96.40
73572;DHT22;61854;48.510;-2.770;2023-03-23T05:18:21;11.90;96.30
73572;DHT22;61854;48.510;-2.770;2023-03-23T05:20:47;11.90;96.20
73572;DHT22;61854;48.510;-2.770;2023-03-23T05:23:14;11.90;96.10
73572;DHT22;61854;48.510;-2.770;2023-03-23T05:25:39;12.00;96.10
73572;DHT22;61854;48.510;-2.770;2023-03-23T05:28:11;11.90;95.90
73572;DHT22;61854;48.510;-2.770;2023-03-23T05:30:37;11.90;96.00
73572;DHT22;61854;48.510;-2.770;2023-03-23T05:33:03;11.90;96.00
73572;DHT22;61854;48.510;-2.770;2023-03-23T05:35:29;11.90;95.90
73572;DHT22;61854;48.510;-2.770;2023-03-23T05:37:55;11.90;96.10
73572;DHT22;61854;48.510;-2.770;2023-03-23T05:40:22;11.90;96.30
73572;DHT22;61854;48.510;-2.770;2023-03-23T05:42:48;11.90;96.40
73572;DHT22;61854;48.510;-2.770;2023-03-23T05:45:14;11.90;96.40
73572;DHT22;61854;48.510;-2.770;2023-03-23T05:47:39;11.90;96.40
73572;DHT22;61854;48.510;-2.770;2023-03-23T05:50:06;12.00;96.60
73572;DHT22;61854;48.510;-2.770;2023-03-23T05:52:32;12.00;96.60
73572;DHT22;61854;48.510;-2.770;2023-03-23T05:55:00;11.90;96.70
73572;DHT22;61854;48.510;-2.770;2023-03-23T05:57:26;11.90;96.70
73572;DHT22;61854;48.510;-2.770;2023-03-23T05:59:52;11.80;96.90
73572;DHT22;61854;48.510;-2.770;2023-03-23T06:02:18;11.80;97.00
73572;DHT22;61854;48.510;-2.770;2023-03-23T06:04:43;11.80;97.10
73572;DHT22;61854;48.510;-2.770;2023-03-23T06:07:10;11.90;97.20
73572;DHT22;61854;48.510;-2.770;2023-03-23T06:09:40;11.90;97.20
73572;DHT22;61854;48.510;-2.770;2023-03-23T06:12:05;11.90;97.10
73572;DHT22;61854;48.510;-2.770;2023-03-23T06:14:31;12.00;97.60
73572;DHT22;61854;48.510;-2.770;2023-03-23T06:16:57;12.00;97.20
73572;DHT22;61854;48.510;-2.770;2023-03-23T06:19:22;12.10;97.10
73572;DHT22;61854;48.510;-2.770;2023-03-23T06:21:48;12.10;96.90
73572;DHT22;61854;48.510;-2.770;2023-03-23T06:24:14;12.10;96.60
73572;DHT22;61854;48.510;-2.770;2023-03-23T06:26:39;12.20;96.90
73572;DHT22;61854;48.510;-2.770;2023-03-23T06:29:06;12.20;96.80
73572;DHT22;61854;48.510;-2.770;2023-03-23T06:31:46;12.20;96.80
73572;DHT22;61854;48.510;-2.770;2023-03-23T06:34:12;12.20;96.90
73572;DHT22;61854;48.510;-2.770;2023-03-23T06:36:38;12.20;96.30
73572;DHT22;61854;48.510;-2.770;2023-03-23T06:39:07;12.20;96.40
73572;DHT22;61854;48.510;-2.770;2023-03-23T06:41:32;12.30;96.40
73572;DHT22;61854;48.510;-2.770;2023-03-23T06:43:58;12.30;96.10
73572;DHT22;61854;48.510;-2.770;2023-03-23T06:46:25;12.30;96.00
73572;DHT22;61854;48.510;-2.770;2023-03-23T06:48:50;12.30;95.60
73572;DHT22;61854;48.510;-2.770;2023-03-23T06:51:16;12.30;95.50
73572;DHT22;61854;48.510;-2.770;2023-03-23T06:53:42;12.30;95.50
73572;DHT22;61854;48.510;-2.770;2023-03-23T06:56:08;12.30;95.30
73572;DHT22;61854;48.510;-2.770;2023-03-23T06:58:34;12.30;95.40
73572;DHT22;61854;48.510;-2.770;2023-03-23T07:01:03;12.30;95.30
73572;DHT22;61854;48.510;-2.770;2023-03-23T07:03:28;12.30;95.10
73572;DHT22;61854;48.510;-2.770;2023-03-23T07:05:56;12.40;95.00
73572;DHT22;61854;48.510;-2.770;2023-03-23T07:08:22;12.40;94.90
73572;DHT22;61854;48.510;-2.770;2023-03-23T07:10:47;12.40;95.30
73572;DHT22;61854;48.510;-2.770;2023-03-23T07:13:17;12.40;94.80
73572;DHT22;61854;48.510;-2.770;2023-03-23T07:15:42;12.40;94.60
73572;DHT22;61854;48.510;-2.770;2023-03-23T07:18:09;12.40;94.60
73572;DHT22;61854;48.510;-2.770;2023-03-23T07:20:35;12.50;94.60
73572;DHT22;61854;48.510;-2.770;2023-03-23T07:23:01;12.60;94.40
73572;DHT22;61854;48.510;-2.770;2023-03-23T07:25:27;12.60;94.10
73572;DHT22;61854;48.510;-2.770;2023-03-23T07:27:53;12.70;94.00
73572;DHT22;61854;48.510;-2.770;2023-03-23T07:30:18;12.70;93.90
73572;DHT22;61854;48.510;-2.770;2023-03-23T07:32:44;12.70;93.70
73572;DHT22;61854;48.510;-2.770;2023-03-23T07:35:10;12.70;93.80
73572;DHT22;61854;48.510;-2.770;2023-03-23T07:37:35;12.70;93.40
73572;DHT22;61854;48.510;-2.770;2023-03-23T07:40:01;12.70;93.50
73572;DHT22;61854;48.510;-2.770;2023-03-23T07:42:46;12.70;93.40
73572;DHT22;61854;48.510;-2.770;2023-03-23T07:45:16;12.80;93.20
73572;DHT22;61854;48.510;-2.770;2023-03-23T07:47:42;12.80;93.10
73572;DHT22;61854;48.510;-2.770;2023-03-23T07:50:07;12.80;93.20
73572;DHT22;61854;48.510;-2.770;2023-03-23T07:52:34;12.90;93.20
73572;DHT22;61854;48.510;-2.770;2023-03-23T07:55:00;12.90;93.00
73572;DHT22;61854;48.510;-2.770;2023-03-23T07:57:27;13.00;93.20
73572;DHT22;61854;48.510;-2.770;2023-03-23T07:59:53;13.10;93.10
73572;DHT22;61854;48.510;-2.770;2023-03-23T08:02:19;13.10;93.00
73572;DHT22;61854;48.510;-2.770;2023-03-23T08:04:44;13.20;93.20
73572;DHT22;61854;48.510;-2.770;2023-03-23T08:07:10;13.20;93.00
73572;DHT22;61854;48.510;-2.770;2023-03-23T08:09:38;13.20;93.00
73572;DHT22;61854;48.510;-2.770;2023-03-23T08:12:04;13.30;93.10
73572;DHT22;61854;48.510;-2.770;2023-03-23T08:14:29;13.40;93.00
73572;DHT22;61854;48.510;-2.770;2023-03-23T08:16:56;13.40;93.40
73572;DHT22;61854;48.510;-2.770;2023-03-23T08:19:21;13.60;92.90
73572;DHT22;61854;48.510;-2.770;2023-03-23T08:21:47;13.60;92.80
73572;DHT22;61854;48.510;-2.770;2023-03-23T08:24:13;13.70;92.30
73572;DHT22;61854;48.510;-2.770;2023-03-23T08:26:39;13.90;91.90
73572;DHT22;61854;48.510;-2.770;2023-03-23T08:29:05;14.00;91.20
73572;DHT22;61854;48.510;-2.770;2023-03-23T08:31:31;14.00;91.20
73572;DHT22;61854;48.510;-2.770;2023-03-23T08:34:00;13.90;90.90
73572;DHT22;61854;48.510;-2.770;2023-03-23T08:36:26;13.90;91.20
73572;DHT22;61854;48.510;-2.770;2023-03-23T08:38:51;14.00;91.40
73572;DHT22;61854;48.510;-2.770;2023-03-23T08:41:18;14.00;91.10
73572;DHT22;61854;48.510;-2.770;2023-03-23T08:43:43;14.00;91.10
73572;DHT22;61854;48.510;-2.770;2023-03-23T08:46:10;14.10;90.60
73572;DHT22;61854;48.510;-2.770;2023-03-23T08:48:36;14.00;90.70
73572;DHT22;61854;48.510;-2.770;2023-03-23T08:51:03;14.00;90.80
73572;DHT22;61854;48.510;-2.770;2023-03-23T08:53:29;14.00;90.70
73572;DHT22;61854;48.510;-2.770;2023-03-23T08:55:56;14.00;90.80
73572;DHT22;61854;48.510;-2.770;2023-03-23T08:58:22;14.10;90.20
73572;DHT22;61854;48.510;-2.770;2023-03-23T09:00:48;14.10;90.20
73572;DHT22;61854;48.510;-2.770;2023-03-23T09:03:13;14.10;90.10
73572;DHT22;61854;48.510;-2.770;2023-03-23T09:05:40;14.20;90.00
73572;DHT22;61854;48.510;-2.770;2023-03-23T09:08:11;14.20;88.90
73572;DHT22;61854;48.510;-2.770;2023-03-23T09:10:37;14.20;88.30
73572;DHT22;61854;48.510;-2.770;2023-03-23T09:13:04;14.30;88.30
73572;DHT22;61854;48.510;-2.770;2023-03-23T09:15:30;14.30;88.30
73572;DHT22;61854;48.510;-2.770;2023-03-23T09:17:56;14.30;88.90
73572;DHT22;61854;48.510;-2.770;2023-03-23T09:20:23;14.30;88.90
73572;DHT22;61854;48.510;-2.770;2023-03-23T09:22:50;14.40;88.70
73572;DHT22;61854;48.510;-2.770;2023-03-23T09:25:16;14.50;88.00
73572;DHT22;61854;48.510;-2.770;2023-03-23T09:27:44;14.50;87.40
73572;DHT22;61854;48.510;-2.770;2023-03-23T09:30:12;14.50;87.90
73572;DHT22;61854;48.510;-2.770;2023-03-23T09:32:39;14.70;86.70
73572;DHT22;61854;48.510;-2.770;2023-03-23T09:35:06;14.70;85.50
73572;DHT22;61854;48.510;-2.770;2023-03-23T09:37:36;14.70;86.30
73572;DHT22;61854;48.510;-2.770;2023-03-23T09:40:04;14.70;86.90
73572;DHT22;61854;48.510;-2.770;2023-03-23T09:42:36;14.80;85.50
73572;DHT22;61854;48.510;-2.770;2023-03-23T09:45:13;14.90;86.00
73572;DHT22;61854;48.510;-2.770;2023-03-23T09:47:44;15.00;84.50
73572;DHT22;61854;48.510;-2.770;2023-03-23T09:50:17;14.90;84.90
73572;DHT22;61854;48.510;-2.770;2023-03-23T09:55:10;14.90;85.50
73572;DHT22;61854;48.510;-2.770;2023-03-23T09:58:12;14.90;84.40
73572;DHT22;61854;48.510;-2.770;2023-03-23T10:00:33;14.90;84.30
73572;DHT22;61854;48.510;-2.770;2023-03-23T10:03:07;15.00;84.60
73572;DHT22;61854;48.510;-2.770;2023-03-23T10:05:39;15.00;84.70
73572;DHT22;61854;48.510;-2.770;2023-03-23T10:08:08;15.10;83.10
73572;DHT22;61854;48.510;-2.770;2023-03-23T10:10:38;15.10;83.00
73572;DHT22;61854;48.510;-2.770;2023-03-23T10:13:13;15.10;81.60
73572;DHT22;61854;48.510;-2.770;2023-03-23T10:15:42;15.10;80.60
73572;DHT22;61854;48.510;-2.770;2023-03-23T10:18:11;15.20;80.30
73572;DHT22;61854;48.510;-2.770;2023-03-23T10:25:53;15.10;80.00
73572;DHT22;61854;48.510;-2.770;2023-03-23T10:31:01;15.10;78.60
73572;DHT22;61854;48.510;-2.770;2023-03-23T10:33:33;15.20;77.80
73572;DHT22;61854;48.510;-2.770;2023-03-23T10:38:32;15.10;80.00
73572;DHT22;61854;48.510;-2.770;2023-03-23T10:41:08;15.20;77.60
73572;DHT22;61854;48.510;-2.770;2023-03-23T10:43:34;15.20;77.60
73572;DHT22;61854;48.510;-2.770;2023-03-23T10:46:02;15.30;78.30
73572;DHT22;61854;48.510;-2.770;2023-03-23T10:48:33;15.40;78.20
73572;DHT22;61854;48.510;-2.770;2023-03-23T10:51:03;15.40;78.40
73572;DHT22;61854;48.510;-2.770;2023-03-23T10:53:42;15.50;79.10
73572;DHT22;61854;48.510;-2.770;2023-03-23T11:01:50;15.60;78.30
73572;DHT22;61854;48.510;-2.770;2023-03-23T11:04:16;15.80;75.70
73572;DHT22;61854;48.510;-2.770;2023-03-23T11:06:46;15.70;75.10
73572;DHT22;61854;48.510;-2.770;2023-03-23T11:09:17;15.70;73.70
73572;DHT22;61854;48.510;-2.770;2023-03-23T11:11:49;15.70;74.30
73572;DHT22;61854;48.510;-2.770;2023-03-23T11:14:25;15.70;74.10
73572;DHT22;61854;48.510;-2.770;2023-03-23T11:16:56;15.70;74.60
73572;DHT22;61854;48.510;-2.770;2023-03-23T11:21:50;15.60;76.20
73572;DHT22;61854;48.510;-2.770;2023-03-23T11:24:16;15.60;76.50
73572;DHT22;61854;48.510;-2.770;2023-03-23T11:26:43;15.70;77.50
73572;DHT22;61854;48.510;-2.770;2023-03-23T11:29:13;15.70;77.10
73572;DHT22;61854;48.510;-2.770;2023-03-23T11:31:43;15.80;76.50
73572;DHT22;61854;48.510;-2.770;2023-03-23T11:34:13;15.70;76.90
73572;DHT22;61854;48.510;-2.770;2023-03-23T11:36:41;15.70;77.90
73572;DHT22;61854;48.510;-2.770;2023-03-23T11:39:20;15.70;77.30
73572;DHT22;61854;48.510;-2.770;2023-03-23T11:41:47;15.70;78.40
73572;DHT22;61854;48.510;-2.770;2023-03-23T11:44:13;15.80;78.20
73572;DHT22;61854;48.510;-2.770;2023-03-23T11:49:59;15.90;77.90
73572;DHT22;61854;48.510;-2.770;2023-03-23T11:52:09;16.00;77.50
73572;DHT22;61854;48.510;-2.770;2023-03-23T11:54:38;16.00;77.80
73572;DHT22;61854;48.510;-2.770;2023-03-23T11:57:08;16.00;77.60
73572;DHT22;61854;48.510;-2.770;2023-03-23T11:59:35;15.90;79.10
73572;DHT22;61854;48.510;-2.770;2023-03-23T12:07:54;15.70;81.80
73572;DHT22;61854;48.510;-2.770;2023-03-23T12:13:08;15.90;80.80
73572;DHT22;61854;48.510;-2.770;2023-03-23T12:16:23;16.10;80.30
73572;DHT22;61854;48.510;-2.770;2023-03-23T12:18:25;16.10;81.20
73572;DHT22;61854;48.510;-2.770;2023-03-23T12:23:38;16.10;81.00
73572;DHT22;61854;48.510;-2.770;2023-03-23T12:26:12;16.00;81.10
73572;DHT22;61854;48.510;-2.770;2023-03-23T12:28:51;16.00;80.70
73572;DHT22;61854;48.510;-2.770;2023-03-23T12:36:45;16.40;79.30
73572;DHT22;61854;48.510;-2.770;2023-03-23T12:41:55;16.60;76.70
73572;DHT22;61854;48.510;-2.770;2023-03-23T12:44:40;16.70;76.10
73572;DHT22;61854;48.510;-2.770;2023-03-23T12:52:23;16.20;77.00
73572;DHT22;61854;48.510;-2.770;2023-03-23T12:54:54;15.90;81.20
73572;DHT22;61854;48.510;-2.770;2023-03-23T12:57:26;15.70;79.90
73572;DHT22;61854;48.510;-2.770;2023-03-23T13:00:02;15.70;79.30
73572;DHT22;61854;48.510;-2.770;2023-03-23T13:02:38;15.70;77.80
73572;DHT22;61854;48.510;-2.770;2023-03-23T13:05:26;15.80;75.40
73572;DHT22;61854;48.510;-2.770;2023-03-23T13:10:28;15.90;73.80
73572;DHT22;61854;48.510;-2.770;2023-03-23T13:12:54;15.90;74.80
73572;DHT22;61854;48.510;-2.770;2023-03-23T13:15:37;15.80;76.80
73572;DHT22;61854;48.510;-2.770;2023-03-23T13:25:49;15.40;71.80
73572;DHT22;61854;48.510;-2.770;2023-03-23T13:28:16;15.40;71.90
73572;DHT22;61854;48.510;-2.770;2023-03-23T13:31:20;15.50;73.40
73572;DHT22;61854;48.510;-2.770;2023-03-23T13:33:37;15.50;71.30
73572;DHT22;61854;48.510;-2.770;2023-03-23T13:36:13;15.50;71.20
73572;DHT22;61854;48.510;-2.770;2023-03-23T13:38:44;15.40;70.10
73572;DHT22;61854;48.510;-2.770;2023-03-23T13:41:15;15.40;69.30
73572;DHT22;61854;48.510;-2.770;2023-03-23T13:43:41;15.50;70.60
73572;DHT22;61854;48.510;-2.770;2023-03-23T13:46:10;15.60;71.30
73572;DHT22;61854;48.510;-2.770;2023-03-23T13:48:49;15.50;73.10
73572;DHT22;61854;48.510;-2.770;2023-03-23T13:54:13;15.10;77.90
73572;DHT22;61854;48.510;-2.770;2023-03-23T13:56:40;14.90;80.20
73572;DHT22;61854;48.510;-2.770;2023-03-23T13:59:07;14.80;82.50
73572;DHT22;61854;48.510;-2.770;2023-03-23T14:01:34;14.70;83.20
73572;DHT22;61854;48.510;-2.770;2023-03-23T14:04:16;14.70;84.40
73572;DHT22;61854;48.510;-2.770;2023-03-23T14:06:43;14.60;84.70
73572;DHT22;61854;48.510;-2.770;2023-03-23T14:09:11;14.60;86.00
73572;DHT22;61854;48.510;-2.770;2023-03-23T14:11:48;14.50;86.20
73572;DHT22;61854;48.510;-2.770;2023-03-23T14:14:18;14.40;87.90
73572;DHT22;61854;48.510;-2.770;2023-03-23T14:16:48;14.20;89.70
73572;DHT22;61854;48.510;-2.770;2023-03-23T14:21:41;14.00;91.30
73572;DHT22;61854;48.510;-2.770;2023-03-23T14:26:35;13.90;91.60
73572;DHT22;61854;48.510;-2.770;2023-03-23T14:29:01;13.80;92.40
73572;DHT22;61854;48.510;-2.770;2023-03-23T14:31:27;13.80;92.70
73572;DHT22;61854;48.510;-2.770;2023-03-23T14:33:53;13.90;92.70
73572;DHT22;61854;48.510;-2.770;2023-03-23T14:36:23;14.00;92.30
73572;DHT22;61854;48.510;-2.770;2023-03-23T14:38:55;14.10;92.70
73572;DHT22;61854;48.510;-2.770;2023-03-23T14:41:22;14.10;92.90
73572;DHT22;61854;48.510;-2.770;2023-03-23T14:43:47;14.00;92.40
73572;DHT22;61854;48.510;-2.770;2023-03-23T14:46:13;14.00;92.90
73572;DHT22;61854;48.510;-2.770;2023-03-23T14:48:39;13.90;92.90
73572;DHT22;61854;48.510;-2.770;2023-03-23T14:51:05;13.80;93.90
73572;DHT22;61854;48.510;-2.770;2023-03-23T14:53:36;13.80;94.20
73572;DHT22;61854;48.510;-2.770;2023-03-23T14:56:12;13.70;95.10
73572;DHT22;61854;48.510;-2.770;2023-03-23T14:58:38;13.60;95.40
73572;DHT22;61854;48.510;-2.770;2023-03-23T15:01:09;13.60;96.50
73572;DHT22;61854;48.510;-2.770;2023-03-23T15:03:43;13.60;97.00
73572;DHT22;61854;48.510;-2.770;2023-03-23T15:06:14;13.50;97.30
73572;DHT22;61854;48.510;-2.770;2023-03-23T15:08:39;13.40;97.80
73572;DHT22;61854;48.510;-2.770;2023-03-23T15:13:43;13.30;98.90
73572;DHT22;61854;48.510;-2.770;2023-03-23T15:16:13;13.30;99.30
73572;DHT22;61854;48.510;-2.770;2023-03-23T15:18:40;13.30;99.70
73572;DHT22;61854;48.510;-2.770;2023-03-23T15:21:27;13.30;99.90
73572;DHT22;61854;48.510;-2.770;2023-03-23T15:23:53;13.30;99.90
73572;DHT22;61854;48.510;-2.770;2023-03-23T15:28:48;13.20;97.70
73572;DHT22;61854;48.510;-2.770;2023-03-23T15:31:13;13.10;98.30
73572;DHT22;61854;48.510;-2.770;2023-03-23T15:33:39;13.00;99.30
73572;DHT22;61854;48.510;-2.770;2023-03-23T15:36:07;12.90;99.90
73572;DHT22;61854;48.510;-2.770;2023-03-23T15:38:34;12.80;99.90
73572;DHT22;61854;48.510;-2.770;2023-03-23T15:41:00;12.80;99.70
73572;DHT22;61854;48.510;-2.770;2023-03-23T15:48:29;12.70;99.10
73572;DHT22;61854;48.510;-2.770;2023-03-23T15:50:55;12.60;98.90
73572;DHT22;61854;48.510;-2.770;2023-03-23T15:53:28;12.60;98.80
73572;DHT22;61854;48.510;-2.770;2023-03-23T15:55:53;12.60;99.30
73572;DHT22;61854;48.510;-2.770;2023-03-23T15:58:19;12.50;99.40
73572;DHT22;61854;48.510;-2.770;2023-03-23T16:00:45;12.50;99.50
73572;DHT22;61854;48.510;-2.770;2023-03-23T16:03:12;12.60;99.90
73572;DHT22;61854;48.510;-2.770;2023-03-23T16:05:40;12.60;99.90
73572;DHT22;61854;48.510;-2.770;2023-03-23T16:08:07;12.50;99.90
73572;DHT22;61854;48.510;-2.770;2023-03-23T16:10:33;12.60;99.90
73572;DHT22;61854;48.510;-2.770;2023-03-23T16:12:58;12.60;99.90
73572;DHT22;61854;48.510;-2.770;2023-03-23T16:15:24;12.60;99.90
73572;DHT22;61854;48.510;-2.770;2023-03-23T16:17:50;12.60;99.90
73572;DHT22;61854;48.510;-2.770;2023-03-23T16:20:17;12.60;99.90
73572;DHT22;61854;48.510;-2.770;2023-03-23T16:22:43;12.70;99.90
73572;DHT22;61854;48.510;-2.770;2023-03-23T16:25:09;12.70;99.90
73572;DHT22;61854;48.510;-2.770;2023-03-23T16:27:36;12.70;99.90
73572;DHT22;61854;48.510;-2.770;2023-03-23T16:30:08;12.60;99.90
73572;DHT22;61854;48.510;-2.770;2023-03-23T16:32:35;12.70;99.90
73572;DHT22;61854;48.510;-2.770;2023-03-23T16:35:00;12.70;99.90
73572;DHT22;61854;48.510;-2.770;2023-03-23T16:37:26;12.70;99.90
73572;DHT22;61854;48.510;-2.770;2023-03-23T16:39:57;12.80;99.90
73572;DHT22;61854;48.510;-2.770;2023-03-23T16:42:22;12.80;99.90
73572;DHT22;61854;48.510;-2.770;2023-03-23T16:44:48;12.80;99.90
73572;DHT22;61854;48.510;-2.770;2023-03-23T16:47:15;12.80;99.90
73572;DHT22;61854;48.510;-2.770;2023-03-23T16:49:42;12.80;99.90
73572;DHT22;61854;48.510;-2.770;2023-03-23T16:52:08;12.90;99.90
73572;DHT22;61854;48.510;-2.770;2023-03-23T16:54:33;12.90;99.90
73572;DHT22;61854;48.510;-2.770;2023-03-23T16:56:59;12.90;99.90
73572;DHT22;61854;48.510;-2.770;2023-03-23T16:59:26;12.90;99.90